Time;durP1;ratioP1;P1;durP2;ratioP2;P2;SDS_P1;SDS_P2;PMS_P1;PMS_P2;Temp;Humidity;BMP_temperature;BMP_pressure;BME280_temperature;BME280_humidity;BME280_pressure;Samples;Min_cycle;Max_cycle;Signal;HPM_P1;HPM_P2
2022/02/14 00:01:00;;;;;;;17.73;5.70;;;;;;;6.17;74.12;100004.66;5030346;28;20406;-76
2022/02/14 00:03:30;;;;;;;11.35;4.43;;;;;;;6.16;74.05;99995.31;5047466;28;20070;-76
2022/02/14 00:05:56;;;;;;;10.52;4.57;;;;;;;6.12;74.10;99997.41;5049693;28;20040;-76
2022/02/14 00:08:22;;;;;;;13.75;4.85;;;;;;;6.16;74.20;99985.03;5064270;28;20036;-75
2022/02/14 00:10:47;;;;;;;12.07;4.30;;;;;;;6.20;74.53;99979.44;5031659;28;20040;-76
2022/02/14 00:13:13;;;;;;;14.52;4.72;;;;;;;6.12;74.67;99975.97;5032843;28;20047;-76
2022/02/14 00:15:41;;;;;;;14.40;4.57;;;;;;;6.13;74.95;99969.88;5065372;28;20106;-76
2022/02/14 00:18:06;;;;;;;17.05;5.72;;;;;;;6.14;75.05;99974.91;5045533;28;20113;-76
2022/02/14 00:20:32;;;;;;;13.77;5.32;;;;;;;6.01;75.27;99964.97;5047453;28;20047;-76
2022/02/14 00:22:57;;;;;;;14.13;4.97;;;;;;;5.98;75.85;99969.59;5047508;28;20455;-76
2022/02/14 00:25:23;;;;;;;11.13;4.55;;;;;;;5.89;75.66;99970.44;5047529;28;20036;-76
2022/02/14 00:27:50;;;;;;;15.07;4.70;;;;;;;5.81;76.34;99960.88;5064294;28;20032;-76
2022/02/14 00:30:16;;;;;;;11.77;3.88;;;;;;;5.73;76.97;99969.31;5046563;28;20533;-76
2022/02/14 00:32:42;;;;;;;10.57;4.00;;;;;;;5.81;76.82;99961.66;5047877;28;20020;-76
2022/02/14 00:35:10;;;;;;;13.60;3.63;;;;;;;5.93;76.95;99959.69;5029563;28;20035;-76
2022/02/14 00:37:36;;;;;;;12.65;3.80;;;;;;;6.14;76.36;99956.03;5046485;28;20067;-76
2022/02/14 00:40:03;;;;;;;14.32;3.83;;;;;;;6.34;75.68;99960.09;5049957;28;20059;-76
2022/02/14 00:42:29;;;;;;;19.17;3.28;;;;;;;6.51;75.05;99950.72;5049924;28;20078;-76
2022/02/14 00:44:55;;;;;;;11.43;3.28;;;;;;;6.69;74.51;99949.88;5040500;28;20059;-76
2022/02/14 00:47:20;;;;;;;17.27;3.30;;;;;;;6.74;74.00;99948.47;5044813;28;20028;-76
2022/02/14 00:49:47;;;;;;;12.73;3.17;;;;;;;6.77;73.99;99940.41;5046394;28;20056;-76
2022/02/14 00:52:14;;;;;;;14.45;2.80;;;;;;;6.99;73.08;99935.72;5065745;28;20110;-77
2022/02/14 00:54:40;;;;;;;11.50;2.90;;;;;;;6.96;73.09;99943.75;5047666;28;20320;-76
2022/02/14 00:57:05;;;;;;;10.60;2.78;;;;;;;7.03;73.02;99926.72;5065357;28;20781;-76
2022/02/14 00:59:31;;;;;;;18.25;3.42;;;;;;;7.22;72.13;99925.66;5066549;28;20375;-76
2022/02/14 01:01:56;;;;;;;10.05;3.08;;;;;;;7.25;71.80;99924.53;5045059;28;20041;-76
2022/02/14 01:04:22;;;;;;;15.10;3.28;;;;;;;7.21;71.98;99921.47;5046105;28;20032;-76
2022/02/14 01:06:48;;;;;;;8.98;2.42;;;;;;;7.19;72.14;99920.81;5055298;28;20032;-75
2022/02/14 01:09:14;;;;;;;8.82;2.70;;;;;;;7.18;72.13;99920.00;5065713;28;20040;-76
2022/02/14 01:11:39;;;;;;;9.95;3.22;;;;;;;7.16;72.30;99911.63;5047796;28;20365;-77
2022/02/14 01:14:06;;;;;;;10.77;2.72;;;;;;;7.18;71.94;99909.69;5046985;28;21679;-77
2022/02/14 01:16:31;;;;;;;10.25;2.90;;;;;;;7.10;72.48;99906.28;5064635;28;20502;-76
2022/02/14 01:18:57;;;;;;;12.70;2.80;;;;;;;7.01;72.92;99908.81;5047541;28;20036;-76
2022/02/14 01:21:22;;;;;;;10.32;3.78;;;;;;;6.95;73.05;99904.28;5045765;28;20036;-76
2022/02/14 01:23:48;;;;;;;10.60;3.80;;;;;;;6.82;73.74;99898.75;5047525;28;20136;-76
2022/02/14 01:26:13;;;;;;;12.13;3.95;;;;;;;6.80;73.52;99895.53;5064214;28;20036;-76
2022/02/14 01:28:39;;;;;;;17.50;3.92;;;;;;;6.68;73.80;99894.16;5046558;28;20040;-75
2022/02/14 01:31:05;;;;;;;18.67;4.18;;;;;;;6.59;73.99;99890.72;5045695;28;20350;-76
2022/02/14 01:33:30;;;;;;;12.55;4.32;;;;;;;6.51;74.41;99880.38;5046888;28;20032;-76
2022/02/14 01:35:56;;;;;;;11.10;4.25;;;;;;;6.43;75.19;99881.13;5050205;28;20033;-76
2022/02/14 01:38:21;;;;;;;13.52;4.43;;;;;;;6.50;74.96;99871.84;5062637;28;20032;-76
2022/02/14 01:40:47;;;;;;;19.85;4.57;;;;;;;6.40;75.03;99876.28;5063792;28;20043;-76
2022/02/14 01:43:15;;;;;;;15.63;4.25;;;;;;;6.40;75.89;99874.53;5063947;28;20112;-76
2022/02/14 01:45:44;;;;;;;17.67;3.60;;;;;;;6.35;75.80;99871.59;5063663;28;20064;-76
2022/02/14 01:48:11;;;;;;;14.38;4.03;;;;;;;6.29;76.16;99864.47;5045608;28;20207;-76
2022/02/14 01:50:37;;;;;;;11.20;3.13;;;;;;;6.35;75.76;99850.19;5046737;28;20036;-76
2022/02/14 01:53:03;;;;;;;12.38;4.05;;;;;;;6.39;76.07;99848.91;5047032;28;20037;-76
2022/02/14 01:55:30;;;;;;;10.80;3.50;;;;;;;6.42;75.70;99846.03;5047009;28;20025;-76
2022/02/14 01:57:55;;;;;;;12.45;3.85;;;;;;;6.42;76.00;99853.75;5049849;28;20036;-76
2022/02/14 02:00:21;;;;;;;10.95;4.20;;;;;;;6.37;75.79;99845.69;5067583;28;20548;-76
2022/02/14 02:02:47;;;;;;;14.52;3.92;;;;;;;6.38;75.67;99847.28;5064099;28;20445;-76
2022/02/14 02:05:13;;;;;;;15.10;4.03;;;;;;;6.39;76.12;99836.03;5043647;28;20057;-75
2022/02/14 02:07:39;;;;;;;16.75;3.70;;;;;;;6.36;76.10;99834.56;5064884;28;20036;-76
2022/02/14 02:10:07;;;;;;;11.05;4.03;;;;;;;6.39;75.83;99833.47;5063122;28;20063;-76
2022/02/14 02:12:33;;;;;;;15.43;3.55;;;;;;;6.26;76.79;99833.88;5047348;28;20020;-76
2022/02/14 02:15:04;;;;;;;7.70;3.58;;;;;;;6.27;76.84;99830.31;5038021;28;20094;-76
2022/02/14 02:17:35;;;;;;;10.13;3.88;;;;;;;6.33;76.24;99823.75;5043567;28;20033;-76
2022/02/14 02:20:08;;;;;;;12.88;4.57;;;;;;;6.37;76.76;99819.94;5060930;28;20029;-76
2022/02/14 02:22:34;;;;;;;10.20;4.55;;;;;;;6.44;75.83;99800.31;5046261;28;20505;-76
2022/02/14 02:25:00;;;;;;;10.85;4.68;;;;;;;6.36;76.42;99800.28;5062499;28;20052;-76
2022/02/14 02:27:27;;;;;;;13.70;3.75;;;;;;;6.32;76.46;99804.94;5063095;28;20386;-76
2022/02/14 02:29:57;;;;;;;14.10;3.70;;;;;;;6.36;76.77;99793.34;5063542;28;20090;-77
2022/02/14 02:32:27;;;;;;;12.98;3.50;;;;;;;6.20;77.14;99790.72;5045627;28;20024;-76
2022/02/14 02:34:53;;;;;;;8.15;3.50;;;;;;;6.31;77.15;99782.72;5027608;28;20095;-76
2022/02/14 02:37:19;;;;;;;11.10;3.53;;;;;;;6.29;76.82;99779.50;5061792;28;20279;-74
2022/02/14 02:39:45;;;;;;;15.40;3.70;;;;;;;6.24;77.62;99779.16;5064813;28;20039;-74
2022/02/14 02:42:14;;;;;;;10.10;3.25;;;;;;;6.23;77.76;99780.09;5045865;28;20032;-74
2022/02/14 02:44:40;;;;;;;13.27;2.92;;;;;;;6.29;77.08;99779.50;5045832;28;20051;-74
2022/02/14 02:47:10;;;;;;;10.88;2.80;;;;;;;6.58;76.03;99773.19;5045381;28;20256;-73
2022/02/14 02:49:35;;;;;;;17.90;2.70;;;;;;;6.91;74.57;99770.72;5045229;28;20032;-74
2022/02/14 02:52:03;;;;;;;7.32;2.65;;;;;;;7.19;73.21;99760.94;5030238;28;20481;-74
2022/02/14 02:54:29;;;;;;;9.85;3.33;;;;;;;7.43;72.28;99747.28;5048598;28;20462;-74
2022/02/14 02:56:55;;;;;;;8.82;2.30;;;;;;;7.46;71.89;99749.53;5046506;28;20032;-74
2022/02/14 02:59:22;;;;;;;7.35;3.15;;;;;;;7.52;71.57;99745.50;5044350;28;20114;-74
2022/02/14 03:01:48;;;;;;;13.15;2.63;;;;;;;7.45;71.47;99745.34;5067388;28;20056;-74
2022/02/14 03:04:15;;;;;;;6.07;2.22;;;;;;;7.53;71.57;99752.28;5051388;28;20098;-74
2022/02/14 03:06:41;;;;;;;10.13;3.38;;;;;;;7.67;70.71;99736.16;5052259;28;20490;-74
2022/02/14 03:09:08;;;;;;;10.45;2.65;;;;;;;7.58;71.08;99740.50;5066826;28;20033;-74
2022/02/14 03:11:35;;;;;;;12.02;2.72;;;;;;;7.63;70.80;99734.03;5067519;28;20034;-74
2022/02/14 03:14:01;;;;;;;7.55;2.33;;;;;;;7.64;70.92;99733.88;5047596;28;20029;-74
2022/02/14 03:16:27;;;;;;;12.15;2.13;;;;;;;7.67;70.79;99728.41;5052100;28;20114;-74
2022/02/14 03:18:53;;;;;;;8.63;2.80;;;;;;;7.71;70.48;99729.69;5060347;28;20028;-74
2022/02/14 03:21:22;;;;;;;11.35;3.08;;;;;;;7.72;70.55;99727.91;5070365;28;20036;-76
2022/02/14 03:23:49;;;;;;;9.70;2.97;;;;;;;7.73;70.67;99714.84;5048129;28;20117;-77
2022/02/14 03:26:19;;;;;;;12.70;2.67;;;;;;;7.67;70.81;99707.75;5049835;28;20043;-76
2022/02/14 03:28:46;;;;;;;10.27;2.33;;;;;;;7.66;70.85;99700.19;5047801;28;20046;-77
2022/02/14 03:31:12;;;;;;;7.88;2.30;;;;;;;7.73;70.62;99708.88;5048333;28;20040;-77
2022/02/14 03:33:38;;;;;;;6.55;2.42;;;;;;;7.75;70.50;99706.94;5066904;28;20182;-76
2022/02/14 03:36:04;;;;;;;6.97;2.60;;;;;;;7.71;70.69;99705.66;5065678;28;20059;-77
2022/02/14 03:38:30;;;;;;;10.82;2.28;;;;;;;7.84;70.22;99710.31;5049353;28;20036;-76
2022/02/14 03:40:56;;;;;;;3.53;2.05;;;;;;;7.85;70.09;99699.81;5050691;28;20040;-76
2022/02/14 03:43:21;;;;;;;12.68;2.85;;;;;;;7.79;70.62;99703.06;5031368;28;20040;-76
2022/02/14 03:45:47;;;;;;;7.18;2.33;;;;;;;7.76;70.66;99699.03;5054373;28;20036;-76
2022/02/14 03:48:12;;;;;;;10.20;2.75;;;;;;;7.82;70.81;99704.50;5049233;28;20039;-77
2022/02/14 03:50:38;;;;;;;10.05;2.47;;;;;;;7.78;70.45;99706.63;5047502;28;20267;-77
2022/02/14 03:53:04;;;;;;;10.15;2.53;;;;;;;7.78;70.56;99714.38;5067582;28;20034;-77
2022/02/14 03:55:30;;;;;;;9.63;3.00;;;;;;;7.72;70.86;99704.69;5049523;28;20035;-76
2022/02/14 03:57:56;;;;;;;9.93;2.25;;;;;;;7.74;70.68;99697.56;5065656;28;20097;-77
2022/02/14 04:00:23;;;;;;;7.70;2.75;;;;;;;7.81;70.43;99695.97;5053851;28;20036;-76
2022/02/14 04:02:49;;;;;;;7.72;2.30;;;;;;;7.84;70.22;99695.63;5033600;28;20035;-77
2022/02/14 04:05:16;;;;;;;10.05;2.35;;;;;;;7.71;70.71;99696.13;5067318;28;20406;-76
2022/02/14 04:07:43;;;;;;;8.52;2.30;;;;;;;7.76;70.46;99691.31;5048439;28;20036;-76
2022/02/14 04:10:11;;;;;;;6.72;2.28;;;;;;;7.79;70.53;99683.22;5048118;28;20035;-76
2022/02/14 04:12:37;;;;;;;6.40;2.67;;;;;;;7.83;70.34;99685.47;5049600;28;20553;-77
2022/02/14 04:15:04;;;;;;;9.07;2.22;;;;;;;7.86;70.34;99690.31;5046437;28;20475;-76
2022/02/14 04:17:30;;;;;;;12.73;2.83;;;;;;;7.72;70.58;99684.03;5031917;28;20083;-76
2022/02/14 04:19:56;;;;;;;11.93;2.70;;;;;;;7.61;71.50;99682.63;5048797;28;20052;-76
2022/02/14 04:22:22;;;;;;;9.77;2.95;;;;;;;7.53;72.14;99686.00;5030608;28;20033;-76
2022/02/14 04:24:47;;;;;;;7.65;3.05;;;;;;;7.36;72.34;99677.47;5049385;28;20383;-76
2022/02/14 04:27:13;;;;;;;10.40;3.58;;;;;;;7.26;72.95;99674.25;5052093;28;20043;-76
2022/02/14 04:29:38;;;;;;;7.18;2.67;;;;;;;7.04;73.59;99667.97;5047457;28;20128;-76
2022/02/14 04:32:04;;;;;;;14.80;3.35;;;;;;;6.99;73.63;99673.63;5050662;28;20040;-75
2022/02/14 04:34:30;;;;;;;11.25;3.63;;;;;;;6.93;73.74;99668.28;5046171;28;20086;-76
2022/02/14 04:36:55;;;;;;;11.30;3.33;;;;;;;6.87;74.17;99664.56;5064663;28;20670;-77
2022/02/14 04:39:21;;;;;;;9.68;3.10;;;;;;;6.70;74.61;99671.47;5059284;28;20040;-76
2022/02/14 04:41:46;;;;;;;9.20;3.10;;;;;;;6.78;74.58;99668.09;5037587;28;20042;-76
2022/02/14 04:44:12;;;;;;;10.52;3.42;;;;;;;6.74;74.76;99665.06;5045750;28;20098;-77
2022/02/14 04:46:38;;;;;;;15.90;3.92;;;;;;;6.66;74.85;99670.16;5047551;28;20040;-76
2022/02/14 04:49:04;;;;;;;10.23;3.38;;;;;;;6.63;75.20;99662.78;5046201;28;20099;-76
2022/02/14 04:51:30;;;;;;;17.25;4.35;;;;;;;6.68;74.91;99665.66;5046101;28;20040;-76
2022/02/14 04:53:56;;;;;;;8.93;3.00;;;;;;;6.67;75.21;99663.25;5048453;28;20044;-76
2022/02/14 04:56:21;;;;;;;8.02;3.15;;;;;;;6.58;75.77;99658.09;5048501;28;20035;-76
2022/02/14 04:58:48;;;;;;;10.75;3.22;;;;;;;6.57;75.56;99665.97;5067006;28;20047;-76
2022/02/14 05:01:14;;;;;;;8.85;3.22;;;;;;;6.52;75.68;99663.06;5045567;28;20029;-76
2022/02/14 05:03:40;;;;;;;11.93;3.80;;;;;;;6.50;75.93;99650.34;5063068;28;20071;-76
2022/02/14 05:06:06;;;;;;;6.45;3.15;;;;;;;6.57;75.80;99655.66;5045280;28;20032;-76
2022/02/14 05:08:32;;;;;;;12.00;3.25;;;;;;;6.56;75.99;99649.72;5044664;28;20122;-76
2022/02/14 05:10:57;;;;;;;10.20;3.83;;;;;;;6.61;75.54;99659.53;5045968;28;20060;-76
2022/02/14 05:13:23;;;;;;;7.18;2.97;;;;;;;6.59;76.00;99651.16;5045046;28;20121;-76
2022/02/14 05:15:49;;;;;;;12.13;3.75;;;;;;;6.51;75.88;99659.66;5028743;28;20024;-76
2022/02/14 05:18:14;;;;;;;10.65;3.40;;;;;;;6.62;75.74;99664.53;5047540;28;20032;-75
2022/02/14 05:20:40;;;;;;;8.65;3.13;;;;;;;6.63;75.86;99661.00;5046175;28;20044;-76
2022/02/14 05:23:05;;;;;;;13.00;3.55;;;;;;;6.59;76.02;99671.75;5048612;28;20398;-76
2022/02/14 05:25:31;;;;;;;6.13;2.67;;;;;;;6.65;75.77;99668.56;5043887;28;20403;-76
2022/02/14 05:27:57;;;;;;;10.48;4.40;;;;;;;6.62;76.31;99658.56;5065222;28;20114;-76
2022/02/14 05:30:22;;;;;;;6.25;2.63;;;;;;;6.59;76.89;99662.28;5062532;28;20035;-76
2022/02/14 05:32:48;;;;;;;6.95;2.63;;;;;;;6.63;76.71;99666.16;5047156;28;20039;-76
2022/02/14 05:35:13;;;;;;;11.35;2.95;;;;;;;6.72;76.87;99658.44;5063439;28;20039;-77
2022/02/14 05:37:39;;;;;;;8.10;3.20;;;;;;;6.90;76.82;99661.69;5064905;28;20388;-76
2022/02/14 05:40:06;;;;;;;12.20;4.20;;;;;;;6.98;77.06;99655.72;5064344;28;20074;-76
2022/02/14 05:42:31;;;;;;;11.98;2.38;;;;;;;6.99;77.35;99663.31;5045700;28;20117;-76
2022/02/14 05:44:57;;;;;;;7.93;2.65;;;;;;;7.53;75.84;99649.09;5046382;28;20028;-77
2022/02/14 05:47:22;;;;;;;12.73;2.22;;;;;;;7.92;74.30;99650.94;5028116;28;20028;-76
2022/02/14 05:49:48;;;;;;;9.15;4.20;;;;;;;8.02;73.99;99645.56;5046703;28;20556;-77
2022/02/14 05:52:13;;;;;;;10.02;3.17;;;;;;;8.23;73.26;99648.41;5030197;28;20036;-76
2022/02/14 05:54:39;;;;;;;3.50;1.67;;;;;;;8.18;73.33;99633.41;5045902;28;20055;-77
2022/02/14 05:57:05;;;;;;;7.03;1.92;;;;;;;8.12;73.83;99638.44;5062767;28;20124;-76
2022/02/14 05:59:31;;;;;;;3.58;1.80;;;;;;;8.21;73.38;99637.41;5063143;28;20064;-76
2022/02/14 06:01:56;;;;;;;7.25;2.35;;;;;;;8.31;73.30;99635.44;5065146;28;20121;-77
2022/02/14 06:04:22;;;;;;;7.35;2.65;;;;;;;8.22;73.66;99639.03;5046069;28;20036;-76
2022/02/14 06:06:47;;;;;;;4.78;2.47;;;;;;;8.30;73.44;99636.41;5065110;28;20051;-76
2022/02/14 06:09:13;;;;;;;4.30;1.77;;;;;;;8.43;73.01;99635.88;5046071;28;20146;-77
2022/02/14 06:11:39;;;;;;;6.43;2.28;;;;;;;8.46;73.06;99630.38;5030371;28;20032;-76
2022/02/14 06:14:05;;;;;;;7.70;1.65;;;;;;;8.57;72.68;99634.38;5047277;28;20406;-76
2022/02/14 06:16:31;;;;;;;6.43;1.75;;;;;;;8.54;72.88;99639.88;5046576;28;20040;-76
2022/02/14 06:18:57;;;;;;;5.47;2.30;;;;;;;8.45;73.21;99638.31;5046052;28;20041;-76
2022/02/14 06:21:22;;;;;;;4.78;2.40;;;;;;;8.56;73.12;99630.94;5064391;28;20033;-76
2022/02/14 06:23:49;;;;;;;5.07;2.33;;;;;;;8.46;73.33;99643.31;5046881;28;20032;-76
2022/02/14 06:26:15;;;;;;;8.10;2.70;;;;;;;8.34;73.72;99647.19;5045076;28;20318;-77
2022/02/14 06:28:41;;;;;;;15.13;6.10;;;;;;;8.40;73.80;99641.38;5028244;28;20062;-76
2022/02/14 06:31:08;;;;;;;3.72;2.55;;;;;;;8.38;73.89;99635.53;5046930;28;20035;-76
2022/02/14 06:33:35;;;;;;;5.43;1.92;;;;;;;8.28;74.45;99640.13;5066653;28;20153;-76
2022/02/14 06:36:00;;;;;;;6.95;2.20;;;;;;;8.49;73.87;99621.47;5049643;28;20093;-76
2022/02/14 06:38:26;;;;;;;5.32;1.95;;;;;;;8.45;74.23;99630.53;5067040;28;20461;-77
2022/02/14 06:40:51;;;;;;;7.50;1.70;;;;;;;8.33;74.47;99632.69;5049568;28;20111;-77
2022/02/14 06:43:17;;;;;;;4.40;2.55;;;;;;;8.43;74.33;99629.91;5068317;28;20060;-76
2022/02/14 06:45:42;;;;;;;5.68;1.48;;;;;;;8.39;74.23;99645.72;5048234;28;20094;-76
2022/02/14 06:48:08;;;;;;;3.08;1.50;;;;;;;8.37;74.65;99639.91;5067018;28;20037;-77
2022/02/14 06:50:33;;;;;;;3.92;1.58;;;;;;;8.31;75.00;99644.97;5031632;28;20032;-76
2022/02/14 06:52:59;;;;;;;5.35;1.23;;;;;;;8.40;74.94;99646.53;5050753;28;20402;-76
2022/02/14 06:55:26;;;;;;;5.15;2.38;;;;;;;8.31;75.55;99644.97;5050301;28;20102;-76
2022/02/14 06:57:51;;;;;;;4.75;1.60;;;;;;;8.35;75.62;99646.25;5050164;28;20439;-76
2022/02/14 07:00:17;;;;;;;4.50;1.10;;;;;;;8.55;75.13;99646.63;5049940;28;20116;-76
2022/02/14 07:02:43;;;;;;;6.22;1.42;;;;;;;8.62;74.72;99644.97;5065391;28;20406;-77
2022/02/14 07:05:11;;;;;;;6.75;1.33;;;;;;;8.56;74.87;99668.91;5067879;28;20087;-76
2022/02/14 07:07:37;;;;;;;4.03;1.25;;;;;;;8.64;74.71;99649.97;5048613;28;20111;-76
2022/02/14 07:10:03;;;;;;;2.72;1.17;;;;;;;8.57;75.05;99645.50;5066907;28;20039;-77
2022/02/14 07:12:29;;;;;;;6.88;1.30;;;;;;;8.66;74.98;99654.00;5049400;28;20029;-74
2022/02/14 07:14:54;;;;;;;3.35;1.20;;;;;;;8.68;74.87;99659.81;5050975;28;20036;-74
2022/02/14 07:17:20;;;;;;;3.40;1.10;;;;;;;8.74;74.85;99659.13;5067105;28;20403;-74
2022/02/14 07:19:45;;;;;;;3.40;1.38;;;;;;;8.73;75.00;99657.50;5066937;28;20417;-73
2022/02/14 07:22:11;;;;;;;4.18;1.40;;;;;;;8.76;74.61;99659.75;5048857;28;20394;-75
2022/02/14 07:24:36;;;;;;;4.22;1.55;;;;;;;8.73;75.49;99675.59;5065288;28;20050;-74
2022/02/14 07:27:02;;;;;;;3.28;1.25;;;;;;;8.83;75.31;99667.59;5048945;28;20033;-74
2022/02/14 07:29:27;;;;;;;4.75;1.15;;;;;;;8.91;75.19;99664.16;5065780;28;20037;-74
2022/02/14 07:31:53;;;;;;;6.22;1.38;;;;;;;8.91;75.20;99664.16;5066769;28;20485;-74
2022/02/14 07:34:18;;;;;;;8.10;1.35;;;;;;;8.91;75.16;99671.91;5065857;28;20086;-74
2022/02/14 07:36:44;;;;;;;2.42;1.02;;;;;;;8.88;75.48;99672.28;5047374;28;20024;-74
2022/02/14 07:39:11;;;;;;;5.60;1.65;;;;;;;8.92;75.16;99674.34;5046457;28;20032;-74
2022/02/14 07:41:38;;;;;;;4.80;1.50;;;;;;;8.90;75.72;99681.47;5043491;28;20040;-74
2022/02/14 07:44:06;;;;;;;2.15;1.45;;;;;;;8.99;75.66;99681.44;5064902;28;20188;-74
2022/02/14 07:46:31;;;;;;;7.20;2.13;;;;;;;9.00;75.62;99681.22;5048176;28;20086;-74
2022/02/14 07:48:57;;;;;;;8.40;1.88;;;;;;;8.96;75.77;99688.53;5065456;28;20434;-74
2022/02/14 07:51:22;;;;;;;6.47;1.95;;;;;;;8.97;75.95;99702.28;5066790;28;20029;-74
2022/02/14 07:53:48;;;;;;;3.28;1.38;;;;;;;8.98;76.04;99690.94;5047630;28;20031;-75
2022/02/14 07:56:14;;;;;;;7.45;1.40;;;;;;;9.04;75.77;99692.03;5065475;28;20399;-74
2022/02/14 07:58:42;;;;;;;4.10;1.30;;;;;;;9.04;76.31;99695.44;5046655;28;20074;-74
2022/02/14 08:01:08;;;;;;;6.15;2.08;;;;;;;9.04;76.49;99692.84;5064658;28;20494;-75
2022/02/14 08:03:33;;;;;;;2.80;1.63;;;;;;;9.06;76.14;99688.31;5032760;28;20116;-73
2022/02/14 08:05:59;;;;;;;9.13;1.75;;;;;;;9.16;76.33;99696.63;5065158;28;20305;-74
2022/02/14 08:08:24;;;;;;;2.92;1.40;;;;;;;9.26;75.76;99690.41;5056802;28;20044;-74
2022/02/14 08:10:53;;;;;;;5.15;1.40;;;;;;;9.23;76.18;99691.59;5065170;28;20097;-74
2022/02/14 08:13:19;;;;;;;3.20;1.13;;;;;;;9.29;76.04;99700.44;5048821;28;20028;-74
2022/02/14 08:15:44;;;;;;;6.75;1.50;;;;;;;9.38;75.94;99707.16;5047255;28;20047;-74
2022/02/14 08:18:10;;;;;;;5.13;1.30;;;;;;;9.43;75.91;99693.66;5068673;28;20032;-74
2022/02/14 08:20:36;;;;;;;3.72;1.30;;;;;;;9.48;75.51;99709.50;5043933;28;20044;-74
2022/02/14 08:23:03;;;;;;;10.25;1.95;;;;;;;9.42;76.14;99708.41;5046053;28;20043;-74
2022/02/14 08:25:30;;;;;;;2.35;1.10;;;;;;;9.49;76.08;99709.31;5066727;28;20093;-74
2022/02/14 08:27:58;;;;;;;4.35;1.08;;;;;;;9.60;76.22;99709.84;5047868;28;20115;-74
2022/02/14 08:30:23;;;;;;;5.25;1.38;;;;;;;9.63;75.68;99697.38;5066261;28;20036;-74
2022/02/14 08:32:50;;;;;;;6.75;1.83;;;;;;;9.66;75.58;99694.44;5047424;28;20044;-74
2022/02/14 08:35:17;;;;;;;3.17;1.20;;;;;;;9.78;75.29;99706.94;5047642;28;20029;-74
2022/02/14 08:37:44;;;;;;;5.15;1.50;;;;;;;9.92;74.77;99716.50;5065536;28;20422;-74
2022/02/14 08:40:10;;;;;;;7.70;1.42;;;;;;;9.92;74.73;99709.53;5066066;28;20040;-74
2022/02/14 08:42:35;;;;;;;4.07;1.27;;;;;;;10.01;74.32;99699.91;5048245;28;20394;-75
2022/02/14 08:45:02;;;;;;;1.80;0.88;;;;;;;9.95;75.02;99703.22;5063601;28;20032;-74
2022/02/14 08:47:27;;;;;;;3.50;1.23;;;;;;;10.03;75.09;99705.69;5055688;28;20309;-74
2022/02/14 08:49:53;;;;;;;4.80;0.93;;;;;;;10.16;74.32;99715.44;5047426;28;20789;-74
2022/02/14 08:52:18;;;;;;;4.57;1.17;;;;;;;10.10;75.05;99727.31;5061323;28;20039;-74
2022/02/14 08:54:44;;;;;;;4.05;1.27;;;;;;;10.03;75.22;99725.63;5029250;28;20032;-74
2022/02/14 08:57:09;;;;;;;3.17;1.17;;;;;;;10.04;75.51;99727.22;5047595;28;20157;-74
2022/02/14 08:59:35;;;;;;;4.07;1.30;;;;;;;10.01;75.89;99730.19;5067861;28;20043;-74
2022/02/14 09:02:01;;;;;;;4.05;1.50;;;;;;;10.00;76.17;99731.97;5049390;28;20037;-74
2022/02/14 09:04:27;;;;;;;3.17;1.13;;;;;;;10.09;75.74;99722.31;5031438;28;20067;-74
2022/02/14 09:06:53;;;;;;;2.78;1.13;;;;;;;10.01;76.04;99725.78;5046663;28;20072;-74
2022/02/14 09:09:20;;;;;;;4.15;1.35;;;;;;;10.05;76.29;99726.25;5047994;28;20028;-74
2022/02/14 09:11:47;;;;;;;3.72;1.10;;;;;;;10.01;76.65;99733.56;5063141;28;20043;-74
2022/02/14 09:14:12;;;;;;;2.35;1.17;;;;;;;10.20;76.21;99731.44;5063647;28;20089;-74
2022/02/14 09:16:38;;;;;;;5.00;1.27;;;;;;;10.15;76.39;99734.53;5066430;28;20040;-74
2022/02/14 09:19:03;;;;;;;1.73;0.98;;;;;;;10.21;76.41;99733.03;5065546;28;20039;-74
2022/02/14 09:21:29;;;;;;;5.75;1.70;;;;;;;10.23;76.01;99746.63;5062882;28;20430;-74
2022/02/14 09:23:55;;;;;;;8.10;1.42;;;;;;;10.26;76.41;99741.06;5046552;28;20037;-74
2022/02/14 09:26:23;;;;;;;3.60;1.20;;;;;;;10.07;78.02;99760.53;5048803;28;20020;-75
2022/02/14 09:28:48;;;;;;;3.47;1.10;;;;;;;10.18;77.65;99760.09;5062628;28;20035;-74
2022/02/14 09:31:14;;;;;;;2.20;1.10;;;;;;;10.05;78.72;99768.47;5061044;28;20036;-75
2022/02/14 09:33:40;;;;;;;3.60;1.30;;;;;;;9.97;79.57;99773.75;5041088;28;20033;-75
2022/02/14 09:36:05;;;;;;;2.42;1.20;;;;;;;9.94;80.11;99766.31;5048516;28;20033;-74
2022/02/14 09:38:31;;;;;;;8.18;1.40;;;;;;;9.97;80.33;99768.56;5065996;28;20051;-74
2022/02/14 09:40:59;;;;;;;3.45;1.27;;;;;;;9.97;80.41;99770.38;5047959;28;20466;-74
2022/02/14 09:43:25;;;;;;;4.78;1.30;;;;;;;10.06;80.60;99774.50;5046421;28;20037;-74
2022/02/14 09:45:50;;;;;;;3.22;1.13;;;;;;;10.04;80.21;99776.41;5046375;28;20402;-74
2022/02/14 09:48:17;;;;;;;6.60;1.40;;;;;;;10.00;80.10;99785.53;5048499;28;20199;-75
2022/02/14 09:50:44;;;;;;;5.78;1.38;;;;;;;10.01;79.88;99780.19;5062329;28;20071;-74
2022/02/14 09:53:11;;;;;;;2.22;1.23;;;;;;;10.10;79.44;99789.47;5063263;28;20020;-74
2022/02/14 09:55:38;;;;;;;4.78;1.23;;;;;;;10.04;79.53;99789.38;5045017;28;20035;-74
2022/02/14 09:58:06;;;;;;;5.63;1.30;;;;;;;9.81;79.42;99798.00;5050707;28;20074;-74
2022/02/14 10:00:32;;;;;;;1.88;1.25;;;;;;;9.98;79.63;99790.88;5062947;28;20041;-73
2022/02/14 10:03:36;;;;;;;2.90;1.13;;;;;;;10.02;77.86;99786.97;5045975;28;20028;-74
2022/02/14 10:06:02;;;;;;;1.55;0.80;;;;;;;10.07;77.30;99807.16;4996825;28;20085;-75
2022/02/14 10:08:33;;;;;;;5.35;1.10;;;;;;;10.14;76.43;99802.88;4955581;28;20866;-74
2022/02/14 10:11:18;;;;;;;2.42;0.80;;;;;;;10.32;75.42;99798.19;5035066;28;20036;-74
2022/02/14 10:13:50;;;;;;;2.08;0.85;;;;;;;10.46;74.93;99816.53;5045985;28;20131;-74
2022/02/14 10:16:16;;;;;;;2.95;1.00;;;;;;;10.26;72.97;99826.56;5065848;28;20490;-75
2022/02/14 10:18:42;;;;;;;0.93;0.50;;;;;;;10.18;72.77;99829.25;5064166;28;20049;-75
2022/02/14 10:21:25;;;;;;;2.70;1.50;;;;;;;10.01;71.99;99831.19;5063609;28;20040;-74
2022/02/14 10:24:08;;;;;;;;;;;;;;;10.08;71.14;99845.84;5042721;28;20482;-75
2022/02/14 10:26:36;;;;;;;2.28;0.75;;;;;;;10.25;70.58;99849.09;5063028;28;19928;-75
2022/02/14 10:29:22;;;;;;;1.45;0.70;;;;;;;10.24;68.82;99844.06;5045826;28;20036;-74
2022/02/14 10:31:50;;;;;;;1.85;0.73;;;;;;;10.21;68.29;99857.38;5044350;28;20032;-76
2022/02/14 10:34:18;;;;;;;2.30;0.70;;;;;;;10.16;69.15;99859.72;5028153;28;20522;-75
2022/02/14 10:36:45;;;;;;;2.33;1.00;;;;;;;10.33;68.87;99861.97;5047389;28;20130;-75
2022/02/14 10:39:17;;;;;;;4.20;1.20;;;;;;;10.36;68.88;99857.44;5045956;28;20028;-76
2022/02/14 10:41:44;;;;;;;2.13;0.85;;;;;;;10.25;69.06;99879.38;5044988;28;20032;-75
2022/02/14 10:47:22;;;;;;;1.60;0.90;;;;;;;10.23;68.53;99876.97;5062398;28;20036;-75
2022/02/14 10:50:19;;;;;;;2.92;0.50;;;;;;;10.28;68.14;99895.38;5043935;28;20032;-77
2022/02/14 10:52:54;;;;;;;1.83;0.60;;;;;;;10.25;67.23;99889.75;5042770;28;20234;-74
2022/02/14 10:55:30;;;;;;;2.17;0.70;;;;;;;10.15;67.86;99897.75;5062299;28;20027;-75
2022/02/14 10:57:58;;;;;;;3.50;0.77;;;;;;;10.15;68.19;99908.09;5044171;28;20132;-75
2022/02/14 11:00:31;;;;;;;1.90;0.55;;;;;;;10.24;67.86;99914.03;5046239;28;20123;-75
2022/02/14 11:02:58;;;;;;;4.05;1.10;;;;;;;10.33;67.87;99911.22;5046686;28;20047;-75
2022/02/14 11:05:26;;;;;;;5.05;1.10;;;;;;;10.30;67.63;99924.53;5062817;28;20487;-75
2022/02/14 11:07:52;;;;;;;3.20;0.45;;;;;;;10.38;67.38;99917.66;5046651;28;20044;-75
2022/02/14 11:10:20;;;;;;;3.03;0.68;;;;;;;10.54;67.70;99921.91;5049048;28;20060;-75
2022/02/14 11:12:58;;;;;;;1.10;0.57;;;;;;;10.60;67.51;99924.56;5045096;28;20585;-76
2022/02/14 11:15:35;;;;;;;1.02;0.40;;;;;;;10.66;67.30;99918.69;5046217;28;20446;-75
2022/02/14 11:18:07;;;;;;;4.90;0.70;;;;;;;10.44;66.72;99935.13;5047044;28;20048;-75
2022/02/14 11:20:33;;;;;;;6.43;0.75;;;;;;;10.23;68.28;99928.78;5046823;28;20078;-75
2022/02/14 11:23:00;;;;;;;3.17;0.68;;;;;;;10.23;68.57;99928.78;5049839;28;20406;-75
2022/02/14 11:25:51;;;;;;;2.35;0.77;;;;;;;10.50;68.99;99929.22;5049330;28;20058;-76
2022/02/14 11:28:28;;;;;;;2.35;0.70;;;;;;;10.70;68.63;99924.34;5066443;28;20172;-76
2022/02/14 11:31:20;;;;;;;2.38;0.57;;;;;;;10.82;68.42;99922.09;5047890;28;20044;-76
2022/02/14 11:33:54;;;;;;;4.68;0.80;;;;;;;10.97;67.38;99928.09;5064280;28;20051;-76
2022/02/14 11:36:21;;;;;;;5.25;0.80;;;;;;;10.91;67.65;99921.03;5030978;28;20473;-76
2022/02/14 11:38:52;;;;;;;4.70;0.70;;;;;;;10.78;66.44;99926.84;5031679;28;20493;-76